Terminal Aerodrome Forecast
Issued by NWS

Home | Current Version | Previous Version | Text Only | Print | Product List | Glossary On
Versions: 1 2 3 4 5 6 7 8 9 10 11 12 13 14 15 16
000
FTUS44 KHGX 211126
TAFCXO
TAF
KCXO 211126Z 2112/2212 09005KT P6SM BKN020 OVC040
     FM211300 10006KT P6SM BKN015 OVC025
     FM211800 12009KT P6SM VCSH BKN025 BKN060 OVC180
     FM212100 13009KT P6SM VCTS BKN025CB BKN040 PROB30 2206/2208 4SM
      -TSRA BKN010CB
     FM220900 27010KT 5SM BR OVC010=

USA.gov is the U.S. government's official web portal to all federal, state and local government web resources and services.